createdAt,value
2019-03-23T00:02:10.032Z,5.53
2019-03-23T00:04:40.955Z,6.90
2019-03-23T00:07:12.240Z,7.47
2019-03-23T00:09:43.160Z,6.93
2019-03-23T00:12:14.074Z,7.30
2019-03-23T00:14:45.081Z,7.60
2019-03-23T00:17:15.991Z,7.60
2019-03-23T00:19:46.900Z,7.47
2019-03-23T00:22:17.816Z,6.50
2019-03-23T00:24:49.070Z,6.33
2019-03-23T00:27:19.969Z,5.97
2019-03-23T00:29:50.847Z,5.33
2019-03-23T00:32:21.750Z,5.77
2019-03-23T00:34:52.655Z,5.97
2019-03-23T00:37:23.560Z,5.30
2019-03-23T00:39:54.491Z,4.90
2019-03-23T00:42:25.394Z,5.07
2019-03-23T00:44:56.259Z,4.70
2019-03-23T00:47:27.245Z,5.27
2019-03-23T00:49:58.183Z,4.90
2019-03-23T00:52:29.067Z,6.20
2019-03-23T00:55:00.355Z,5.60
2019-03-23T00:57:31.259Z,5.53
2019-03-23T01:00:02.199Z,5.40
2019-03-23T01:02:33.115Z,5.57
2019-03-23T01:05:04.264Z,4.67
2019-03-23T01:07:35.198Z,5.63
2019-03-23T01:10:07.483Z,4.90
2019-03-23T01:12:38.396Z,4.90
2019-03-23T01:15:10.462Z,4.93
2019-03-23T01:17:41.262Z,4.80
2019-03-23T01:20:13.191Z,5.00
2019-03-23T01:22:43.999Z,4.80
2019-03-23T01:25:14.793Z,4.50
2019-03-23T01:27:45.726Z,5.20
2019-03-23T01:30:16.962Z,5.03
2019-03-23T01:32:48.780Z,5.00
2019-03-23T01:35:19.679Z,5.30
2019-03-23T01:37:50.558Z,5.17
2019-03-23T01:40:21.469Z,5.47
2019-03-23T01:42:52.361Z,5.07
2019-03-23T01:45:23.291Z,5.13
2019-03-23T01:47:54.205Z,4.97
2019-03-23T01:50:25.090Z,4.90
2019-03-23T01:52:55.995Z,4.90
2019-03-23T01:55:27.007Z,4.83
2019-03-23T01:57:57.946Z,4.63
2019-03-23T02:00:28.934Z,5.20
2019-03-23T02:02:59.824Z,5.20
2019-03-23T02:05:30.686Z,4.90
2019-03-23T02:08:01.607Z,4.77
2019-03-23T02:10:32.463Z,4.83
2019-03-23T02:13:03.354Z,4.90
2019-03-23T02:15:34.310Z,4.87
2019-03-23T02:18:05.203Z,4.90
2019-03-23T02:20:36.024Z,5.23
2019-03-23T02:23:07.099Z,5.00
2019-03-23T02:25:38.046Z,4.70
2019-03-23T02:28:08.963Z,4.87
2019-03-23T02:30:39.863Z,4.80
2019-03-23T02:33:10.586Z,4.90
2019-03-23T02:35:41.490Z,5.27
2019-03-23T02:38:12.551Z,4.80
2019-03-23T02:40:43.583Z,4.90
2019-03-23T02:43:14.475Z,4.70
2019-03-23T02:45:45.378Z,4.63
2019-03-23T02:48:21.749Z,4.93
2019-03-23T02:50:52.644Z,4.60
2019-03-23T02:53:23.547Z,5.10
2019-03-23T02:55:54.486Z,5.03
2019-03-23T02:58:25.417Z,4.57
2019-03-23T03:00:56.339Z,3.97
2019-03-23T03:03:27.267Z,5.07
2019-03-23T03:05:58.138Z,6.77
2019-03-23T03:08:29.049Z,6.77
2019-03-23T03:10:59.939Z,6.37
2019-03-23T03:13:30.853Z,7.07
2019-03-23T03:16:01.747Z,8.33
2019-03-23T03:18:32.682Z,8.93
2019-03-23T03:21:03.582Z,8.87
2019-03-23T03:23:34.502Z,8.37
2019-03-23T03:26:05.410Z,7.53
2019-03-23T03:28:36.399Z,7.63
2019-03-23T03:31:07.341Z,6.57
2019-03-23T03:33:38.232Z,6.13
2019-03-23T03:36:09.264Z,5.60
2019-03-23T03:38:40.154Z,5.90
2019-03-23T03:41:11.041Z,5.90
2019-03-23T03:43:41.981Z,5.30
2019-03-23T03:46:12.882Z,5.33
2019-03-23T03:48:43.773Z,4.77
2019-03-23T03:51:14.656Z,5.37
2019-03-23T03:53:45.583Z,5.50
2019-03-23T03:56:16.406Z,5.07
2019-03-23T03:58:47.364Z,5.13
2019-03-23T04:01:18.283Z,6.00
2019-03-23T04:03:49.199Z,5.23
2019-03-23T04:06:20.113Z,5.50
2019-03-23T04:08:51.041Z,4.80
2019-03-23T04:11:22.016Z,5.10
2019-03-23T04:13:52.863Z,5.30
2019-03-23T04:16:24.051Z,5.37
2019-03-23T04:18:55.055Z,5.70
2019-03-23T04:21:25.953Z,5.33
2019-03-23T04:23:56.979Z,5.37
2019-03-23T04:26:28.039Z,5.53
2019-03-23T04:28:59.127Z,7.80
2019-03-23T04:31:30.106Z,8.10
2019-03-23T04:34:01.015Z,7.00
2019-03-23T04:36:31.815Z,6.47
2019-03-23T04:39:02.717Z,5.47
2019-03-23T04:41:33.631Z,6.30
2019-03-23T04:44:04.558Z,5.90
2019-03-23T04:46:35.582Z,6.03
2019-03-23T04:49:06.408Z,5.90
2019-03-23T04:51:37.320Z,5.50
2019-03-23T04:54:08.383Z,5.57
2019-03-23T04:56:39.351Z,5.87
2019-03-23T04:59:10.182Z,6.47
2019-03-23T05:01:41.003Z,6.37
2019-03-23T05:04:11.966Z,6.27
2019-03-23T05:06:42.927Z,6.20
2019-03-23T05:09:13.812Z,6.20
2019-03-23T05:11:44.710Z,5.83
2019-03-23T05:14:15.610Z,5.40
2019-03-23T05:16:46.551Z,5.07
2019-03-23T05:19:17.484Z,5.50
2019-03-23T05:21:48.445Z,5.40
2019-03-23T05:24:19.552Z,5.83
2019-03-23T05:26:50.499Z,6.37
2019-03-23T05:29:22.503Z,8.63
2019-03-23T05:31:53.369Z,28.80
2019-03-23T05:34:24.491Z,49.20
2019-03-23T05:36:55.450Z,14.90
2019-03-23T05:39:26.358Z,13.23
2019-03-23T05:41:57.362Z,16.87
2019-03-23T05:44:28.423Z,7.93
2019-03-23T05:46:59.334Z,5.40
2019-03-23T05:49:30.424Z,6.13
2019-03-23T05:52:01.591Z,7.30
2019-03-23T05:54:32.729Z,6.80
2019-03-23T05:57:03.913Z,6.70
2019-03-23T05:59:34.967Z,5.30
2019-03-23T06:02:05.888Z,5.07
2019-03-23T06:04:36.837Z,4.90
2019-03-23T06:07:07.810Z,5.30
2019-03-23T06:09:38.981Z,6.47
2019-03-23T06:12:09.979Z,5.70
2019-03-23T06:14:40.901Z,6.07
2019-03-23T06:17:12.095Z,6.27
2019-03-23T06:19:43.188Z,6.60
2019-03-23T06:22:14.201Z,6.37
2019-03-23T06:24:45.186Z,6.43
2019-03-23T06:27:16.114Z,6.47
2019-03-23T06:29:47.310Z,6.00
2019-03-23T06:32:20.792Z,5.80
2019-03-23T06:34:51.775Z,8.80
2019-03-23T06:37:23.005Z,17.20
2019-03-23T06:39:53.967Z,17.97
2019-03-23T06:42:24.907Z,15.33
2019-03-23T06:44:55.991Z,17.93
2019-03-23T06:47:26.967Z,16.03
2019-03-23T06:49:57.798Z,12.77
2019-03-23T06:52:29.002Z,11.40
2019-03-23T06:54:59.990Z,10.97
2019-03-23T06:57:30.976Z,11.30
2019-03-23T07:00:01.895Z,9.43
2019-03-23T07:02:32.744Z,8.60
2019-03-23T07:05:03.626Z,7.43
2019-03-23T07:07:34.549Z,13.77
2019-03-23T07:10:07.272Z,13.27
2019-03-23T07:12:38.430Z,7.60
2019-03-23T07:15:19.475Z,10.90
2019-03-23T07:17:42.673Z,9.27
2019-03-23T07:20:13.782Z,7.73
2019-03-23T07:22:44.709Z,10.47
2019-03-23T07:25:15.761Z,13.73
2019-03-23T07:27:46.640Z,15.60
2019-03-23T07:30:18.492Z,18.77
2019-03-23T07:32:49.387Z,24.63
2019-03-23T07:35:20.379Z,10.37
2019-03-23T07:37:51.587Z,12.70
2019-03-23T07:40:22.561Z,12.00
2019-03-23T07:42:53.452Z,10.53
2019-03-23T07:45:24.365Z,12.90
2019-03-23T07:47:55.255Z,6.80
2019-03-23T07:50:26.223Z,7.43
2019-03-23T07:52:57.146Z,6.37
2019-03-23T07:55:28.071Z,8.70
2019-03-23T07:57:58.959Z,7.30
2019-03-23T08:00:29.882Z,7.07
2019-03-23T08:03:00.775Z,7.00
2019-03-23T08:05:31.743Z,6.10
2019-03-23T08:08:02.606Z,7.70
2019-03-23T08:10:34.135Z,13.53
2019-03-23T08:13:05.183Z,10.73
2019-03-23T08:15:36.067Z,9.33
2019-03-23T08:18:06.962Z,8.90
2019-03-23T08:20:37.771Z,9.47
2019-03-23T08:23:08.623Z,9.77
2019-03-23T08:25:39.531Z,14.20
2019-03-23T08:28:10.347Z,11.77
2019-03-23T08:30:41.226Z,9.73
2019-03-23T08:33:12.235Z,7.87
2019-03-23T08:35:43.146Z,7.50
2019-03-23T08:38:14.047Z,7.07
2019-03-23T08:40:44.934Z,6.20
2019-03-23T08:43:15.875Z,5.70
2019-03-23T08:45:46.706Z,6.20
2019-03-23T08:48:17.585Z,6.00
2019-03-23T08:50:48.771Z,5.90
2019-03-23T08:53:19.672Z,6.13
2019-03-23T08:55:52.443Z,6.60
2019-03-23T08:58:30.749Z,5.50
2019-03-23T09:01:01.669Z,6.00
2019-03-23T09:03:32.538Z,10.37
2019-03-23T09:06:03.392Z,17.00
2019-03-23T09:08:34.286Z,6.83
2019-03-23T09:11:05.171Z,7.77
2019-03-23T09:13:40.535Z,6.93
2019-03-23T09:16:08.578Z,6.43
2019-03-23T09:18:39.388Z,6.63
2019-03-23T09:21:10.321Z,7.73
2019-03-23T09:23:41.198Z,22.13
2019-03-23T09:26:13.737Z,12.50
2019-03-23T09:28:44.719Z,8.10
2019-03-23T09:31:15.613Z,7.93
2019-03-23T09:33:46.507Z,12.07
2019-03-23T09:36:17.434Z,12.40
2019-03-23T09:38:48.311Z,7.60
2019-03-23T09:41:19.154Z,6.93
2019-03-23T09:43:50.046Z,7.10
2019-03-23T09:46:20.882Z,6.83
2019-03-23T09:48:51.774Z,6.90
2019-03-23T09:51:22.652Z,7.23
2019-03-23T09:53:53.579Z,7.20
2019-03-23T09:56:24.474Z,6.63
2019-03-23T09:58:55.366Z,7.10
2019-03-23T10:01:26.355Z,6.97
2019-03-23T10:03:57.266Z,6.77
2019-03-23T10:06:28.078Z,6.70
2019-03-23T10:08:58.956Z,7.27
2019-03-23T10:11:29.774Z,7.07
2019-03-23T10:14:00.594Z,7.00
2019-03-23T10:16:31.420Z,7.77
2019-03-23T10:19:02.311Z,7.50
2019-03-23T10:21:33.194Z,7.13
2019-03-23T10:24:04.060Z,7.33
2019-03-23T10:26:34.974Z,7.47
2019-03-23T10:29:05.792Z,6.97
2019-03-23T10:31:36.671Z,6.90
2019-03-23T10:34:07.594Z,7.63
2019-03-23T10:36:38.418Z,6.97
2019-03-23T10:39:09.259Z,6.63
2019-03-23T10:41:40.178Z,7.23
2019-03-23T10:44:11.053Z,6.07
2019-03-23T10:46:41.951Z,12.43
2019-03-23T10:49:12.930Z,6.90
2019-03-23T10:51:43.808Z,6.17
2019-03-23T10:54:14.863Z,4.90
2019-03-23T10:56:45.919Z,5.27
2019-03-23T10:59:17.126Z,5.60
2019-03-23T11:01:48.019Z,5.20
2019-03-23T11:04:19.130Z,5.43
2019-03-23T11:06:50.026Z,5.03
2019-03-23T11:09:20.906Z,5.23
2019-03-23T11:11:51.702Z,5.50
2019-03-23T11:14:22.575Z,5.97
2019-03-23T11:16:53.455Z,5.00
2019-03-23T11:19:24.322Z,4.27
2019-03-23T11:21:55.139Z,4.50
2019-03-23T11:24:26.018Z,4.17
2019-03-23T11:26:56.960Z,4.73
2019-03-23T11:29:27.790Z,4.90
2019-03-23T11:31:58.648Z,4.70
2019-03-23T11:34:29.655Z,5.00
2019-03-23T11:37:00.519Z,5.50
2019-03-23T11:39:31.463Z,17.00
2019-03-23T11:42:02.399Z,8.57
2019-03-23T11:44:33.251Z,7.17
2019-03-23T11:47:04.256Z,10.70
2019-03-23T11:49:35.226Z,9.23
2019-03-23T11:52:06.126Z,5.60
2019-03-23T11:54:37.228Z,5.60
2019-03-23T11:57:08.293Z,5.80
2019-03-23T11:59:39.356Z,6.50
2019-03-23T12:02:10.418Z,6.30
2019-03-23T12:04:41.339Z,6.77
2019-03-23T12:07:12.467Z,5.90
2019-03-23T12:09:43.354Z,5.87
2019-03-23T12:12:14.460Z,6.80
2019-03-23T12:14:45.330Z,6.90
2019-03-23T12:17:16.175Z,5.90
2019-03-23T12:19:47.232Z,5.77
2019-03-23T12:22:18.119Z,5.63
2019-03-23T12:24:49.086Z,6.43
2019-03-23T12:27:20.109Z,7.50
2019-03-23T12:29:50.990Z,8.80
2019-03-23T12:32:21.923Z,7.73
2019-03-23T12:34:52.831Z,7.00
2019-03-23T12:37:23.847Z,8.40
2019-03-23T12:39:54.764Z,8.40
2019-03-23T12:42:25.669Z,7.20
2019-03-23T12:44:56.562Z,7.07
2019-03-23T12:47:27.471Z,7.63
2019-03-23T12:49:58.366Z,6.53
2019-03-23T12:52:29.260Z,6.80
2019-03-23T12:55:00.219Z,6.90
2019-03-23T12:57:31.156Z,6.43
2019-03-23T13:00:02.270Z,6.17
2019-03-23T13:02:33.045Z,5.90
2019-03-23T13:05:04.195Z,6.13
2019-03-23T13:07:35.234Z,6.00
2019-03-23T13:10:06.584Z,6.33
2019-03-23T13:12:37.566Z,6.00
2019-03-23T13:15:09.531Z,6.20
2019-03-23T13:17:40.508Z,6.03
2019-03-23T13:20:11.681Z,6.00
2019-03-23T13:22:42.755Z,5.90
2019-03-23T13:25:13.902Z,6.87
2019-03-23T13:27:44.800Z,6.50
2019-03-23T13:30:15.883Z,6.30
2019-03-23T13:32:47.663Z,6.17
2019-03-23T13:35:18.550Z,5.47
2019-03-23T13:37:49.390Z,5.93
2019-03-23T13:40:20.274Z,6.53
2019-03-23T13:42:51.207Z,5.90
2019-03-23T13:45:22.163Z,5.83
2019-03-23T13:47:54.868Z,5.90
2019-03-23T13:50:28.067Z,6.00
2019-03-23T13:52:58.991Z,6.63
2019-03-23T13:55:31.752Z,6.00
2019-03-23T13:58:12.746Z,6.20
2019-03-23T14:00:43.728Z,5.43
2019-03-23T14:03:14.723Z,5.27
2019-03-23T14:05:45.610Z,5.83
2019-03-23T14:08:16.487Z,5.33
2019-03-23T14:10:47.394Z,4.83
2019-03-23T14:13:18.288Z,5.13
2019-03-23T14:15:49.387Z,5.00
2019-03-23T14:18:20.286Z,5.23
2019-03-23T14:20:51.223Z,4.90
2019-03-23T14:23:22.162Z,4.80
2019-03-23T14:25:52.973Z,5.00
2019-03-23T14:28:23.883Z,5.33
2019-03-23T14:30:54.734Z,5.00
2019-03-23T14:33:25.622Z,4.97
2019-03-23T14:35:56.522Z,4.93
2019-03-23T14:38:27.399Z,5.10
2019-03-23T14:40:58.310Z,5.63
2019-03-23T14:43:29.254Z,4.80
2019-03-23T14:46:00.301Z,4.80
2019-03-23T14:48:31.179Z,5.40
2019-03-23T14:51:02.119Z,5.47
2019-03-23T14:53:32.998Z,5.50
2019-03-23T14:56:03.846Z,6.50
2019-03-23T14:58:34.665Z,5.90
2019-03-23T15:01:05.566Z,5.50
2019-03-23T15:03:36.473Z,6.33
2019-03-23T15:06:07.392Z,6.50
2019-03-23T15:08:38.288Z,5.90
2019-03-23T15:11:09.238Z,6.50
2019-03-23T15:13:40.118Z,6.17
2019-03-23T15:16:11.026Z,5.60
2019-03-23T15:18:41.932Z,5.40
2019-03-23T15:21:12.843Z,5.27
2019-03-23T15:23:43.751Z,5.80
2019-03-23T15:26:14.664Z,4.83
2019-03-23T15:28:45.550Z,5.20
2019-03-23T15:31:16.646Z,4.93
2019-03-23T15:33:47.461Z,4.93
2019-03-23T15:36:18.376Z,5.27
2019-03-23T15:38:49.287Z,6.30
2019-03-23T15:41:20.242Z,5.70
2019-03-23T15:43:51.082Z,5.07
2019-03-23T15:46:21.982Z,4.50
2019-03-23T15:48:52.825Z,4.93
2019-03-23T15:51:23.726Z,5.63
2019-03-23T15:53:54.538Z,5.00
2019-03-23T15:56:25.435Z,4.77
2019-03-23T15:58:56.310Z,4.60
2019-03-23T16:01:27.214Z,4.90
2019-03-23T16:03:58.051Z,4.73
2019-03-23T16:06:29.234Z,4.47
2019-03-23T16:09:00.134Z,4.30
2019-03-23T16:11:30.963Z,4.87
2019-03-23T16:14:01.850Z,4.87
2019-03-23T16:16:32.666Z,4.57
2019-03-23T16:19:03.498Z,4.10
2019-03-23T16:21:34.426Z,4.03
2019-03-23T16:24:05.288Z,4.67
2019-03-23T16:26:36.184Z,6.40
2019-03-23T16:29:07.154Z,6.57
2019-03-23T16:31:38.010Z,6.90
2019-03-23T16:34:08.892Z,7.10
2019-03-23T16:36:39.787Z,5.00
2019-03-23T16:39:10.590Z,4.43
2019-03-23T16:41:42.846Z,5.00
2019-03-23T16:44:13.731Z,5.30
2019-03-23T16:46:44.556Z,4.80
2019-03-23T16:49:15.468Z,5.00
2019-03-23T16:51:46.310Z,4.50
2019-03-23T16:54:17.227Z,4.37
2019-03-23T16:56:48.123Z,3.93
2019-03-23T16:59:19.003Z,3.87
2019-03-23T17:01:49.842Z,3.23
2019-03-23T17:04:20.731Z,3.30
2019-03-23T17:06:51.657Z,3.50
2019-03-23T17:09:22.558Z,5.50
2019-03-23T17:11:53.450Z,7.07
2019-03-23T17:14:24.366Z,9.70
2019-03-23T17:16:55.248Z,10.17
2019-03-23T17:19:29.172Z,12.93
2019-03-23T17:22:00.066Z,9.90
2019-03-23T17:24:30.988Z,8.77
2019-03-23T17:27:01.996Z,8.43
2019-03-23T17:29:32.983Z,9.00
2019-03-23T17:32:04.109Z,10.03
2019-03-23T17:34:35.028Z,16.57
2019-03-23T17:37:06.150Z,14.53
2019-03-23T17:39:37.207Z,12.70
2019-03-23T17:42:08.131Z,16.30
2019-03-23T17:44:39.788Z,18.07
2019-03-23T17:47:10.715Z,12.77
2019-03-23T17:49:41.584Z,11.10
2019-03-23T17:52:12.498Z,11.70
2019-03-23T17:54:43.632Z,17.67
2019-03-23T17:57:14.553Z,24.13
2019-03-23T17:59:45.435Z,15.43
2019-03-23T18:02:16.367Z,11.87
2019-03-23T18:04:47.279Z,14.23
2019-03-23T18:07:18.287Z,15.60
2019-03-23T18:09:49.207Z,11.00
2019-03-23T18:12:20.150Z,8.27
2019-03-23T18:14:51.043Z,9.03
2019-03-23T18:17:22.044Z,11.83
2019-03-23T18:19:52.959Z,14.03
2019-03-23T18:22:23.967Z,10.77
2019-03-23T18:24:54.944Z,8.33
2019-03-23T18:27:26.292Z,10.00
2019-03-23T18:29:57.405Z,8.00
2019-03-23T18:32:29.660Z,7.23
2019-03-23T18:35:03.045Z,7.00
2019-03-23T18:37:33.161Z,7.70
2019-03-23T18:40:04.614Z,8.07
2019-03-23T18:42:35.871Z,7.87
2019-03-23T18:45:06.863Z,8.70
2019-03-23T18:47:37.840Z,22.00
2019-03-23T18:50:08.724Z,18.13
2019-03-23T18:52:39.893Z,14.83
2019-03-23T18:55:11.033Z,22.57
2019-03-23T18:57:41.934Z,26.07
2019-03-23T19:00:14.555Z,19.50
2019-03-23T19:02:45.454Z,17.03
2019-03-23T19:05:16.305Z,9.97
2019-03-23T19:07:47.257Z,8.67
2019-03-23T19:10:18.314Z,9.07
2019-03-23T19:12:49.981Z,8.50
2019-03-23T19:15:20.870Z,8.33
2019-03-23T19:17:51.766Z,9.10
2019-03-23T19:20:22.622Z,8.40
2019-03-23T19:22:53.545Z,8.23
2019-03-23T19:25:24.763Z,10.27
2019-03-23T19:27:55.651Z,10.30
2019-03-23T19:30:27.764Z,10.37
2019-03-23T19:32:58.719Z,12.70
2019-03-23T19:35:29.643Z,15.33
2019-03-23T19:38:00.899Z,14.77
2019-03-23T19:40:31.831Z,12.00
2019-03-23T19:43:02.733Z,14.13
2019-03-23T19:45:33.842Z,32.57
2019-03-23T19:48:04.885Z,17.83
2019-03-23T19:50:35.783Z,10.67
2019-03-23T19:53:06.688Z,10.83
2019-03-23T19:55:37.601Z,12.30
2019-03-23T19:58:08.521Z,22.80
2019-03-23T20:00:39.448Z,30.73
2019-03-23T20:03:10.280Z,24.13
2019-03-23T20:05:41.274Z,18.97
2019-03-23T20:08:12.232Z,14.30
2019-03-23T20:10:43.098Z,11.80
2019-03-23T20:13:13.966Z,9.20
2019-03-23T20:15:44.901Z,9.37
2019-03-23T20:18:15.794Z,11.13
2019-03-23T20:20:46.952Z,13.83
2019-03-23T20:23:17.932Z,9.83
2019-03-23T20:25:48.920Z,10.93
2019-03-23T20:28:19.967Z,10.00
2019-03-23T20:30:50.889Z,9.60
2019-03-23T20:33:21.909Z,9.30
2019-03-23T20:35:53.083Z,262.47
2019-03-23T20:38:24.070Z,232.57
2019-03-23T20:40:55.090Z,162.10
2019-03-23T20:43:26.155Z,102.07
2019-03-23T20:45:57.572Z,74.57
2019-03-23T20:48:28.479Z,55.63
2019-03-23T20:50:59.527Z,43.90
2019-03-23T20:53:30.540Z,15.20
2019-03-23T20:56:01.590Z,15.87
2019-03-23T20:58:32.774Z,12.80
2019-03-23T21:01:03.743Z,9.23
2019-03-23T21:03:34.695Z,8.80
2019-03-23T21:06:05.542Z,10.80
2019-03-23T21:08:36.507Z,14.07
2019-03-23T21:11:07.483Z,38.23
2019-03-23T21:13:38.543Z,45.90
2019-03-23T21:16:09.607Z,17.97
2019-03-23T21:18:40.552Z,13.20
2019-03-23T21:21:11.545Z,11.03
2019-03-23T21:23:42.474Z,10.93
2019-03-23T21:26:13.359Z,10.70
2019-03-23T21:28:44.375Z,10.77
2019-03-23T21:31:15.397Z,10.10
2019-03-23T21:33:46.465Z,8.53
2019-03-23T21:36:17.415Z,8.80
2019-03-23T21:38:48.310Z,8.70
2019-03-23T21:41:19.398Z,9.33
2019-03-23T21:43:50.295Z,9.07
2019-03-23T21:46:21.735Z,9.00
2019-03-23T21:48:53.087Z,8.30
2019-03-23T21:51:23.972Z,8.83
2019-03-23T21:53:54.866Z,53.80
2019-03-23T21:56:25.763Z,11.07
2019-03-23T21:58:56.699Z,10.40
2019-03-23T22:01:27.548Z,11.23
2019-03-23T22:03:58.532Z,11.20
2019-03-23T22:06:29.757Z,9.90
2019-03-23T22:09:00.724Z,9.80
2019-03-23T22:11:31.793Z,9.50
2019-03-23T22:14:02.775Z,9.30
2019-03-23T22:16:33.706Z,8.70
2019-03-23T22:19:04.554Z,9.80
2019-03-23T22:21:35.451Z,9.03
2019-03-23T22:24:06.380Z,9.37
2019-03-23T22:26:37.364Z,9.00
2019-03-23T22:29:08.262Z,8.33
2019-03-23T22:31:39.187Z,9.00
2019-03-23T22:34:10.109Z,8.30
2019-03-23T22:36:41.022Z,8.53
2019-03-23T22:39:11.745Z,8.13
2019-03-23T22:41:42.756Z,7.10
2019-03-23T22:44:13.636Z,7.33
2019-03-23T22:46:44.598Z,7.10
2019-03-23T22:49:15.532Z,6.50
2019-03-23T22:51:46.411Z,6.83
2019-03-23T22:54:17.324Z,7.53
2019-03-23T22:56:48.235Z,7.87
2019-03-23T22:59:19.147Z,7.90
2019-03-23T23:01:50.037Z,7.83
2019-03-23T23:04:20.977Z,6.67
2019-03-23T23:06:51.899Z,7.13
2019-03-23T23:09:22.782Z,24.37
2019-03-23T23:11:53.754Z,25.80
2019-03-23T23:14:24.595Z,10.50
2019-03-23T23:16:55.511Z,8.67
2019-03-23T23:19:26.434Z,28.97
2019-03-23T23:21:57.335Z,8.70
2019-03-23T23:24:28.234Z,7.23
2019-03-23T23:26:59.119Z,6.23
2019-03-23T23:29:30.084Z,6.60
2019-03-23T23:32:01.001Z,6.47
2019-03-23T23:34:31.908Z,6.27
2019-03-23T23:37:02.846Z,7.10
2019-03-23T23:39:33.745Z,6.10
2019-03-23T23:42:04.692Z,7.03
2019-03-23T23:44:36.934Z,7.20
2019-03-23T23:47:07.943Z,7.37
2019-03-23T23:49:38.878Z,6.80
2019-03-23T23:52:09.782Z,6.83
2019-03-23T23:54:40.684Z,7.10
2019-03-23T23:57:11.549Z,6.80
2019-03-23T23:59:42.547Z,6.77
